Aérodrome :
LOGIN :

S'inscrire | Disclaimer

   EN    FR    IT 

 










Légende :    VFR   VFR Marginal   IFR   IFR Intensif   IFR Très Intensif
Visi : 
Plafond : 
>= 8 km
>= 3000ft
5 à 8 km
1000 à 3000 ft
1500m à 5 km
500 à 1000 ft
800 à 1500m
200 à 500 ft
< 800m
< 200 ft
Symboles :   Orages  Brouillard  Fortes neiges  Fortes précipitations  Vent > 20 kt
SIGMETs :   Divers  Orages  Givrage  Turbulence  Onde Orograph.  Cendres Volcan.







- Altitude de l'aérodrome : 302 ft
- Code IATA : MAH


LEMH - Menorca

DERNIER METAR :
  • 290330Z AUTO 04004KT 7000 NCD 17/15 Q1016

METARs EXPIRÉS :
  • 290300Z AUTO 05005KT 9000 NCD 19/16 Q1016
  • 290230Z AUTO 05006KT 9999 NCD 19/16 Q1016
  • 290200Z AUTO 06006KT 9999 NCD 19/16 Q1017
  • 290130Z AUTO 06006KT 9999 NCD 18/15 Q1017
  • 290100Z AUTO 07006KT 9999 NCD 18/16 Q1017

TAF TAF LEMH
Valide du 29 à 03h jusqu'au 30 à 03h UTC


290200Z 2903/3003 09010KT 9999 FEW015 TX27/2912Z TN18/2906Z
PROB30
TEMPO 2903/2906 BKN005
Pas de NOTAMs connus pour ce terrain.



MET'MAP, la Météo Aéronautique d'un coup d'oeil ! - Copyright ORBIFLY Décembre 2007 - Disclaimer

ORBIFLY MET'MAP TEAM :

Programmation & Développement : Alexandra Zaïnal
Conception & Développement : Baudouin d'Aumeries
Co-Programmation & Développement : Marc-Olivier Méhu
Soutien technique & logistique : Manuel Goepfert

Contact : metmap@orbifly.com




SOURCES & CREDITS :

   NOAA